Flight Track Log - Related Links

Times and Time Zones

All times are in EDT time to prevent confusion due to time zone crossing. See the JUS196 flight status page for this flight to view local times or setup timezone preferences in your user account.

Time Position Orientation Groundspeed Altitude Reporting Facility
EDT Latitude Longitude Course Direction KTS MPH feet Rate Location/Type
Tue 11:04:45 PM 42.2258 -83.5475 222° Southwest 154 177 1,900  Level FAA TRACON SMA TRACON (SMA)
Tue 11:05:06 PM 42.2156 -83.5600 222° Southwest 167 192 2,500 1,610 Climbing FAA TRACON SMA TRACON (SMA)
Tue 11:05:26 PM 42.2047 -83.5736 223° Southwest 169 194 3,000 1,950 Climbing FAA TRACON SMA TRACON (SMA)
Tue 11:05:46 PM 42.1883 -83.5797 195° South 161 185 3,800 2,100 Climbing FAA TRACON SMA TRACON (SMA)
Tue 11:06:06 PM 42.1736 -83.5789 178° South 179 206 4,400 1,692 Climbing FAA TRACON SMA TRACON (SMA)
Tue 11:06:25 PM 42.1569 -83.5772 176° South 197 227 4,900 2,550 Climbing FAA TRACON SMA TRACON (SMA)
Tue 11:06:46 PM 42.1333 -83.5750 176° South 219 252 6,100 2,780 Climbing FAA TRACON SMA TRACON (SMA)
Tue 11:07:06 PM 42.1144 -83.5747 179° South 226 260 6,800 2,400 Climbing FAA TRACON SMA TRACON (SMA)
Tue 11:07:26 PM 42.0939 -83.5733 177° South 236 272 7,700 3,150 Climbing FAA TRACON SMA TRACON (SMA)
Tue 11:07:46 PM 42.0686 -83.5817 194° South 242 278 8,900 3,385 Climbing FAA TRACON SMA TRACON (SMA)
Tue 11:08:05 PM 42.0508 -83.5953 210° Southwest 240 276 9,900 2,700 Climbing FAA TRACON SMA TRACON (SMA)
Tue 11:08:26 PM 42.0317 -83.6081 206° Southwest 248 285 10,700 2,780 Climbing FAA TRACON SMA TRACON (SMA)
Tue 11:08:46 PM 42.0058 -83.6219 202° Southwest 259 298 11,800 3,000 Climbing FAA TRACON SMA TRACON (SMA)
Tue 11:09:06 PM 41.9847 -83.6325 200° South 261 300 12,700 2,550 Climbing FAA TRACON SMA TRACON (SMA)
Tue 11:09:26 PM 41.9631 -83.6425 199° South 266 306 13,500 2,769 Climbing FAA TRACON SMA TRACON (SMA)
Tue 11:09:45 PM 41.9353 -83.6572 202° Southwest 275 316 14,500 2,850 Climbing FAA TRACON SMA TRACON (SMA)
Tue 11:10:06 PM 41.9131 -83.6694 202° Southwest 279 321 15,400 2,488 Climbing FAA TRACON SMA TRACON (SMA)
Tue 11:10:26 PM 41.8900 -83.6811 201° Southwest 285 328 16,200 2,550 Climbing FAA TRACON SMA TRACON (SMA)
Tue 11:10:46 PM 41.8606 -83.6956 200° South 291 335 17,100 2,400 Climbing FAA TRACON SMA TRACON (SMA)
Tue 11:11:06 PM 41.8364 -83.7072 200° South 296 341 17,800 2,462 Climbing FAA TRACON SMA TRACON (SMA)
Tue 11:11:25 PM 41.8119 -83.7208 203° Southwest 303 349 18,700 3,450 Climbing FAA TRACON SMA TRACON (SMA)
Tue 11:11:46 PM 41.7822 -83.7369 202° Southwest 299 344 20,100 3,073 Climbing FAA TRACON SMA TRACON (SMA)
Tue 11:12:06 PM 41.7597 -83.7500 203° Southwest 290 334 20,800 2,100 Climbing FAA TRACON SMA TRACON (SMA)
Tue 11:12:26 PM 41.7369 -83.7619 201° Southwest 289 333 21,500 2,100 Climbing FAA TRACON SMA TRACON (SMA)
Tue 11:12:46 PM 41.7078 -83.7764 200° South 290 334 22,200 1,538 Climbing FAA TRACON SMA TRACON (SMA)
Tue 11:13:05 PM 41.6833 -83.7881 200° South 298 343 22,500 900 Climbing FAA TRACON SMA TRACON (SMA)
Tue 11:13:26 PM 41.6567 -83.8000 199° South 327 376 22,800 1,171 Climbing FAA TRACON SMA TRACON (SMA)
Tue 11:13:46 PM 41.6244 -83.8194 204° Southwest 340 391 23,300 1,650 Climbing FAA TRACON SMA TRACON (SMA)
Tue 11:14:06 PM 41.5989 -83.8356 205° Southwest 332 382 23,900 1,200 Climbing FAA TRACON SMA TRACON (SMA)
Tue 11:14:26 PM 41.5925 -83.8397 206° Southwest 332 382 24,100 300 Climbing FAA TRACON SMA TRACON (SMA)
Tue 11:14:46 PM 41.5925 -83.8397 270° West 332 382 24,100 2,700 Level FAA TRACON SMA TRACON (SMA)
Tue 11:15:26 PM 41.5003 -83.9325 217° Southwest 322 371 26,800 2,400 Climbing Cleveland Center
Tue 11:16:26 PM 41.4272 -84.0008 215° Southwest 327 376 28,100 1,250 Climbing Cleveland Center
Tue 11:17:26 PM 41.3461 -84.0683 212° Southwest 333 383 29,300 1,500 Climbing Cleveland Center
Tue 11:19:02 PM 41.2386 -84.1833 219° Southwest 339 390 32,000 1,299 Climbing Chicago Center
Tue 11:20:03 PM 41.2056 -84.3039 250° West 344 396 32,700 689 Climbing Chicago Center
Tue 11:21:04 PM 41.1725 -84.4292 251° West 358 412 33,400 639 Climbing Chicago Center
Tue 11:22:05 PM 41.1417 -84.5578 252° West 365 420 34,000 293 Climbing Chicago Center
Tue 11:23:07 PM 41.1108 -84.6889 253° West 370 426 34,000  Level Chicago Center
Tue 11:24:07 PM 41.0800 -84.8192 253° West 370 426 34,000  Level Chicago Center
Tue 11:25:08 PM 41.0464 -84.9461 251° West 366 421 34,000  Level Chicago Center
Tue 11:26:09 PM 41.0136 -85.0733 251° West 364 419 34,000  Level Chicago Center
Tue 11:27:10 PM 40.9642 -85.2192 246° West 365 420 34,000  Level Chicago Center
Tue 11:28:11 PM 40.8947 -85.3183 227° Southwest 368 423 34,000  Level Chicago Center
Tue 11:29:12 PM 40.8281 -85.4219 230° Southwest 368 423 34,000  Level Chicago Center
Tue 11:30:14 PM 40.7656 -85.5283 232° Southwest 367 422 34,000  Level Chicago Center
Tue 11:31:15 PM 40.7053 -85.6353 233° Southwest 364 419 34,000  Level Chicago Center
Tue 11:32:16 PM 40.6450 -85.7389 233° Southwest 363 418 34,000  Level Chicago Center
Tue 11:33:17 PM 40.5831 -85.8431 232° Southwest 361 415 34,000  Level Chicago Center
Tue 11:34:18 PM 40.5197 -85.9483 232° Southwest 364 419 34,000  Level Chicago Center
Tue 11:35:19 PM 40.4547 -86.0511 230° Southwest 365 420 34,000  Level Chicago Center
Tue 11:36:20 PM 40.3897 -86.1553 231° Southwest 367 422 34,000  Level Chicago Center
Tue 11:37:21 PM 40.3133 -86.2731 230° Southwest 364 419 34,000  Level Chicago Center
Tue 11:38:22 PM 40.2489 -86.3786 231° Southwest 368 423 34,000  Level Chicago Center
Tue 11:39:23 PM 40.1842 -86.4811 230° Southwest 366 421 34,000  Level Chicago Center
Tue 11:40:24 PM 40.1061 -86.5683 221° Southwest 369 425 34,000  Level Chicago Center
Tue 11:41:25 PM 40.0256 -86.6528 219° Southwest 369 425 34,000  Level Chicago Center
Tue 11:42:26 PM 39.9456 -86.7383 219° Southwest 372 428 34,000  Level Chicago Center
Tue 11:43:27 PM 39.8639 -86.8214 218° Southwest 372 428 34,000  Level Chicago Center
Tue 11:44:28 PM 39.7814 -86.9083 219° Southwest 379 436 34,000  Level Chicago Center
Tue 11:45:29 PM 39.6986 -86.9981 220° Southwest 385 443 34,000  Level Chicago Center
Tue 11:46:30 PM 39.6139 -87.0856 219° Southwest 388 447 34,000  Level Chicago Center
Tue 11:47:38 PM 39.5128 -87.1869 218° Southwest 393 452 34,000  Level Indianapolis Center
Tue 11:48:39 PM 39.4283 -87.2756 219° Southwest 390 449 34,000  Level Indianapolis Center
Tue 11:49:40 PM 39.3447 -87.3658 220° Southwest 390 449 34,000  Level Indianapolis Center
Tue 11:50:41 PM 39.2622 -87.4536 219° Southwest 384 442 34,000  Level Indianapolis Center
Tue 11:51:42 PM 39.1803 -87.5397 219° Southwest 379 436 34,000  Level Indianapolis Center
Tue 11:52:43 PM 39.0936 -87.6322 220° Southwest 378 435 34,000  Level Indianapolis Center
Tue 11:53:44 PM 39.0119 -87.7175 219° Southwest 377 434 34,000  Level Indianapolis Center
Tue 11:54:45 PM 38.9303 -87.8033 219° Southwest 379 436 34,000  Level Indianapolis Center
Tue 11:55:46 PM 38.8469 -87.8839 217° Southwest 376 433 34,000  Level Indianapolis Center
Tue 11:56:47 PM 38.7644 -87.9672 218° Southwest 376 433 34,000  Level Indianapolis Center
Tue 11:57:48 PM 38.6833 -88.0514 219° Southwest 375 432 34,000  Level Indianapolis Center
Tue 11:58:46 PM 38.6028 -88.1367 220° Southwest 375 432 34,000  Level Kansas City Center
Tue 11:59:47 PM 38.5225 -88.2222 220° Southwest 375 432 34,000  Level Kansas City Center
Wed 12:00:49 AM 38.4417 -88.3069 219° Southwest 375 432 34,000  Level Kansas City Center
Wed 12:01:49 AM 38.3600 -88.3903 219° Southwest 375 432 34,000  Level Kansas City Center
Wed 12:02:50 AM 38.2772 -88.4742 219° Southwest 377 434 34,000  Level Kansas City Center
Wed 12:03:51 AM 38.1925 -88.5561 217° Southwest 379 436 34,000  Level Kansas City Center
Wed 12:04:51 AM 38.1111 -88.6397 219° Southwest 378 435 34,000  Level Kansas City Center
Wed 12:05:53 AM 38.0261 -88.7253 218° Southwest 376 433 34,000  Level Kansas City Center
Wed 12:06:54 AM 37.9439 -88.8078 218° Southwest 377 434 34,000  Level Kansas City Center
Wed 12:07:55 AM 37.8603 -88.8917 218° Southwest 380 437 34,000  Level Kansas City Center
Wed 12:08:53 AM 37.7681 -88.9839 218° Southwest 377 434 34,000  Level Kansas City Center
Wed 12:09:54 AM 37.6861 -89.0658 218° Southwest 377 434 34,000  Level Kansas City Center
Wed 12:10:57 AM 37.6011 -89.1467 217° Southwest 382 440 34,000  Level Kansas City Center
Wed 12:11:58 AM 37.5169 -89.2267 217° Southwest 380 437 34,000  Level Kansas City Center
Wed 12:12:59 AM 37.4339 -89.3089 218° Southwest 379 436 34,000  Level Kansas City Center
Wed 12:13:58 AM 37.3531 -89.3942 220° Southwest 389 448 34,000  Level Memphis Center
Wed 12:14:58 AM 37.2725 -89.4733 218° Southwest 389 448 34,000  Level Memphis Center
Wed 12:15:58 AM 37.1897 -89.5550 218° Southwest 389 448 34,000  Level Memphis Center
Wed 12:16:58 AM 37.1089 -89.6364 219° Southwest 389 448 34,000  Level Memphis Center
Wed 12:17:58 AM 37.0219 -89.7203 218° Southwest 389 448 34,000  Level Memphis Center
Wed 12:18:58 AM 36.9389 -89.7989 217° Southwest 389 448 34,000  Level Memphis Center
Wed 12:19:58 AM 36.8539 -89.8747 216° Southwest 389 448 34,000  Level Memphis Center
Wed 12:20:58 AM 36.7708 -89.9556 218° Southwest 389 448 34,000  Level Memphis Center
Wed 12:21:58 AM 36.6878 -90.0361 218° Southwest 389 448 34,000  Level Memphis Center
Wed 12:22:58 AM 36.6067 -90.1192 219° Southwest 389 448 34,000  Level Memphis Center
Wed 12:23:58 AM 36.5233 -90.1942 216° Southwest 389 448 34,000  Level Memphis Center
Wed 12:24:58 AM 36.4400 -90.2744 218° Southwest 389 448 34,000  Level Memphis Center
Wed 12:25:58 AM 36.3567 -90.3519 217° Southwest 389 448 34,000  Level Memphis Center
Wed 12:26:58 AM 36.2753 -90.4292 217° Southwest 389 448 34,000  Level Memphis Center
Wed 12:27:58 AM 36.1919 -90.5061 217° Southwest 389 448 34,000  Level Memphis Center
Wed 12:28:58 AM 36.1083 -90.5806 216° Southwest 389 448 34,000  Level Memphis Center
Wed 12:29:58 AM 36.0269 -90.6597 218° Southwest 389 448 34,000  Level Memphis Center
Wed 12:30:58 AM 35.9453 -90.7389 218° Southwest 389 448 34,000  Level Memphis Center
Wed 12:31:58 AM 35.8617 -90.8156 217° Southwest 389 448 34,000  Level Memphis Center
Wed 12:32:58 AM 35.7758 -90.8892 215° Southwest 384 442 34,000  Level Memphis Center
Wed 12:33:58 AM 35.6964 -90.9681 219° Southwest 384 442 34,000  Level Memphis Center
Wed 12:34:58 AM 35.6061 -91.0542 218° Southwest 375 432 34,000  Level Memphis Center
Wed 12:35:58 AM 35.5244 -91.1325 218° Southwest 375 432 34,000  Level Memphis Center
Wed 12:36:58 AM 35.4406 -91.2108 217° Southwest 375 432 34,000  Level Memphis Center
Wed 12:37:58 AM 35.3564 -91.2811 214° Southwest 380 437 34,000  Level Memphis Center
Wed 12:38:58 AM 35.2744 -91.3592 218° Southwest 375 432 34,000  Level Memphis Center
Wed 12:39:58 AM 35.1925 -91.4344 217° Southwest 375 432 34,000  Level Memphis Center
Wed 12:40:58 AM 35.1106 -91.5044 215° Southwest 380 437 34,000  Level Memphis Center
Wed 12:41:58 AM 35.0286 -91.5819 218° Southwest 375 432 34,000  Level Memphis Center
Wed 12:42:58 AM 34.9444 -91.6542 215° Southwest 375 432 34,000  Level Memphis Center
Wed 12:43:58 AM 34.8728 -91.7239 219° Southwest 375 432 34,000  Level Memphis Center
Wed 12:44:58 AM 34.7822 -91.8008 215° Southwest 370 426 34,000  Level Memphis Center
Wed 12:45:58 AM 34.6997 -91.8728 216° Southwest 370 426 34,000  Level Memphis Center
Wed 12:46:58 AM 34.6197 -91.9444 216° Southwest 370 426 34,000  Level Memphis Center
Wed 12:47:58 AM 34.5353 -92.0211 217° Southwest 370 426 34,000  Level Memphis Center
Wed 12:48:58 AM 34.4528 -92.0950 216° Southwest 370 426 34,000  Level Memphis Center
Wed 12:49:58 AM 34.3703 -92.1689 216° Southwest 370 426 34,000  Level Memphis Center
Wed 12:50:58 AM 34.2922 -92.2403 217° Southwest 370 426 34,000  Level Memphis Center
Wed 12:53:19 AM 34.1153 -92.4092 218° Southwest 371 427 34,000  Level Fort Worth Center
Wed 12:54:18 AM 34.0264 -92.4794 213° Southwest 378 435 34,000  Level Fort Worth Center
Wed 12:55:19 AM 33.9475 -92.5489 216° Southwest 373 429 34,000  Level Fort Worth Center
Wed 12:56:18 AM 33.8647 -92.6186 215° Southwest 373 429 34,000  Level Fort Worth Center
Wed 12:57:18 AM 33.7797 -92.6906 215° Southwest 373 429 34,000 -248 Level Fort Worth Center
Wed 12:58:19 AM 33.6992 -92.7650 218° Southwest 373 429 33,500 -1,736 Descending Fort Worth Center
Wed 12:59:19 AM 33.6081 -92.8394 214° Southwest 384 442 30,500 -3,100 Descending Fort Worth Center
Wed 01:00:19 AM 33.5208 -92.9139 215° Southwest 389 448 27,300 -3,200 Descending Fort Worth Center
Wed 01:01:19 AM 33.4422 -92.9875 218° Southwest 389 448 24,100 -3,150 Descending Fort Worth Center
Wed 01:02:19 AM 33.3589 -93.0539 214° Southwest 371 427 21,000 -50 Descending Fort Worth Center
Wed 01:03:19 AM 33.2839 -93.1197 216° Southwest 360 414 24,000 -2,650 Climbing Fort Worth Center
Wed 01:04:19 AM 33.2131 -93.1828 217° Southwest 340 391 15,700 -5,150 Descending Fort Worth Center
Wed 01:05:19 AM 33.1461 -93.2428 217° Southwest 319 367 13,700 -1,300 Descending Fort Worth Center
Wed 01:06:19 AM 33.0792 -93.2981 215° Southwest 306 352 13,100 -300 Descending Fort Worth Center
Wed 01:07:19 AM 33.0122 -93.3533 215° Southwest 306 352 13,100  Level Fort Worth Center
Wed 01:08:19 AM 32.9469 -93.4081 215° Southwest 301 346 13,100 -1,050 Level Fort Worth Center
Wed 01:09:19 AM 32.8819 -93.4606 214° Southwest 301 346 11,000 -1,613 Descending Fort Worth Center
Wed 01:10:18 AM 32.8167 -93.5128 214° Southwest 287 330 9,900 -1,550 Descending Fort Worth Center
Wed 01:11:19 AM 32.7619 -93.5597 216° Southwest 265 305 7,900 -1,983 Descending Fort Worth Center
Wed 01:12:19 AM 32.7047 -93.6067 215° Southwest 259 298 5,900 -1,950 Descending Fort Worth Center
Wed 01:13:19 AM 32.6500 -93.6533 216° Southwest 254 292 4,000 -1,300 Descending Fort Worth Center
Wed 01:14:19 AM 32.6114 -93.6894 218° Southwest 225 259 3,300 -850 Descending Fort Worth Center
Wed 01:15:19 AM 32.5728 -93.7231 216° Southwest 170 196 2,300 -600 Descending Fort Worth Center
Wed 01:16:19 AM 32.5356 -93.7394 200° South 158 182 2,100 -100 Descending Fort Worth Center
Wed 01:17:19 AM 32.4831 -93.7267 168° South 166 191 2,100  Level Fort Worth Center
Wed 01:17:34 AM 32.4725 -93.7222 160° South 187 215 2,100  Level Fort Worth Center
Wed 01:18:19 AM 32.4486 -93.6936 135° Southeast 176 203 2,100  Level Fort Worth Center
Wed 01:18:34 AM 32.4336 -93.6819 147° Southeast 177 204 2,100  Level Fort Worth Center
Wed 01:19:19 AM 32.4097 -93.6508 132° Southeast 182 209 2,100  Level Fort Worth Center
Wed 01:19:35 AM 32.3969 -93.6417 149° Southeast 176 203 2,100  Level Fort Worth Center
Wed 01:20:19 AM 32.3775 -93.6178 134° Southeast 182 209 2,100  Level Fort Worth Center
Wed 01:20:36 AM 32.3567 -93.6236 193° South 169 194 2,100  Level Fort Worth Center
Wed 01:21:19 AM 32.3322 -93.6394 209° Southwest 146 168 2,100  Level Fort Worth Center
Wed 01:21:36 AM 32.3178 -93.6500 212° Southwest 161 185 2,100  Level Fort Worth Center
Wed 01:22:37 AM 32.3067 -93.6922 253° West 165 190 2,100  Level Fort Worth Center
Wed 01:23:37 AM 32.3350 -93.7353 308° West 177 204 2,100 -149 Level Fort Worth Center
Wed 01:24:38 AM 32.3736 -93.7656 326° Northwest 155 178 1,800 -295 Descending Fort Worth Center

Login

Don't have an account? Register now (free) for customized features, flight alerts, and more!